Luqa, Malta

11:06 AM CET on December 03, 2016 (GMT +0100)
Luqa | | Change Station

Elev 299 ft 35.86 °N, 14.48 °E | Updated 21 minutes ago

Partly Cloudy
Partly Cloudy
64 °F
Feels Like 64 °F
N
9
Wind Variable Wind from SSW

Today
High -- | Low -- °F
--% Chance of Precip.
Yesterday
High -- | Low -- °F
Precip. -- in
Pressure 30.12 in
Visibility 6.2 miles
Clouds Few 3000 ft
Dew Point 48 °F
Humidity 56%
Rainfall 0.00 in
Snow Depth Not available.
6:55 AM 4:48 PM
Waxing Crescent, 14% visible
METAR LMML 030945Z 21008KT 170V240 9999 FEW030 18/09 Q1020 NOSIG
Pressure 30.12 in
Visibility 6.2 miles
Clouds Few 3000 ft
Dew Point 48 °F
Humidity 56%
Rainfall 0.00 in
Snow Depth Not available.
6:55 AM 4:48 PM
Waxing Crescent, 14% visible
METAR LMML 030945Z 21008KT 170V240 9999 FEW030 18/09 Q1020 NOSIG

10-Day Weather Forecast

×

Almanac

Astronomy

Dec. 03, 2016 Rise Set
Actual Time
Civil Twilight
Nautical Twilight
Astronomical Twilight
Moon
Length of Visible Light
Length of Day
Tomorrow will be .
, % of the Moon is Illuminated

Today's Extremes

Country Highs Country Lows

Community

WunderPhotos

Upload Photos

1,955,434 photos uploaded!

WunderBlog® & News

Nearby

Air Quality

  Air Quality AQ Index Pollutant
Not available.

Snow Depth

Station Depth Elevation

Earthquake Activity

City Distance Mag. Time & Date
Minimum magnitude displayed is 2.5.

Coastal Water Temperatures

Place Temperature

Stations

Nearby Weather Stations

Station Location Temp. Windchill Dew Point Humidity Wind Precip. Elev Updated Type